KSNAKIZA

Guest
Details From KSNA - Orange County - John Wayne
To KIZA - SANTA YNEZ
Flight Number -
Tags generated
Created
Modified
Stats Distance 123 nm / 228 km
Max Altitude 12,000 ft / 3,658 m
Waypoints 3
Social Downloads 0
Likes 0
Share VATSIM

Download

Looking for another format? Having issues loading an existing format? Contact us
Advertisement - Login to hide

Notes

Basic altitude profile: - Ascent Rate: 1500ft/min - Ascent Speed: 180kts - Cruise Altitude: 12000ft - Cruise Speed: 200kts - Descent Rate: 1000ft/min - Descent Speed: 160kts

Route

KSNA BAYST KIZA

ID Type Via Altitude Latitude Longitude Leg Dist Tot Dist Heading (true) Name
O KSNA APT - 0 ft / 0 m 33.67611˚ -117.86764˚ - 0 nm - Orange County - John Wayne
BAYST FIX - 12,000 ft / 3,658 m 34.02965˚ -118.66367˚ 45 nm 45 nm 298° / 298° -
O KIZA APT - 0 ft / 0 m 34.60682˚ -120.07555˚ 78 nm 123 nm 297° / 296° SANTA YNEZ

Altitude Profile

Advertisement - Login to hide

KSNA

Details ICAO KSNA (SNA)
Name Orange County - John Wayne
Region United States
Timezone America/Los_Angeles (UTC-7.0)
Stats Elevation 56 ft / 17 m (AMSL)
Location 33.676112° -117.867636°
Runways 2
Magnetic Variation 11.806° E

METAR

KSNA 271253Z 14005KT 10SM FEW016 OVC025 16/12 A2994 RMK AO2 SLP140 T01560117

Decode

TAF

TAF KSNA 271120Z 2712/2812 VRB04KT P6SM OVC025 FM271630 VRB04KT P6SM SCT025 FM271900 21010KT P6SM FEW025 FM280200 VRB04KT P6SM FEW015 FM280400 VRB04KT P6SM OVC015

Decode

Departure Runways

ID Width Length Bearing (true) Bearing (mag) Surface Threshold Offset Overrun Length
01L 151 ft / 46 m 5,711 ft / 1,741 m 27.81° 16.00° Asphalt 0 ft / 0 m 1,050 ft / 320 m
01R 75 ft / 23 m 2,892 ft / 881 m 27.80° 15.99° Asphalt 0 ft / 0 m 400 ft / 122 m
19L 75 ft / 23 m 2,892 ft / 881 m 207.80° 195.99° Asphalt 0 ft / 0 m 151 ft / 46 m
19R 151 ft / 46 m 5,711 ft / 1,741 m 207.81° 196.00° Asphalt 0 ft / 0 m 194 ft / 59 m

KIZA

Details ICAO KIZA
Name SANTA YNEZ
Region United States
Timezone America/Los_Angeles (UTC-7.0)
Stats Elevation 671 ft / 205 m (AMSL)
Location 34.606817° -120.075550°
Runways 1
Magnetic Variation 12.410° E

METAR

KIZA 271335Z AUTO 00000KT 10SM OVC007 10/08 A2998 RMK AO2

Decode

TAF

Not found

Destination Runways

ID Width Length Bearing (true) Bearing (mag) Surface Threshold Offset Overrun Length
08 75 ft / 23 m 2,798 ft / 853 m 98.28° 85.87° Asphalt 0 ft / 0 m 0 ft / 0 m
26 75 ft / 23 m 2,798 ft / 853 m 278.29° 265.88° Asphalt 0 ft / 0 m 0 ft / 0 m